createdAt,value
2022-10-17T00:00:39.525Z,13.10
2022-10-17T00:03:06.072Z,13.10
2022-10-17T00:05:32.607Z,13.10
2022-10-17T00:07:59.185Z,13.10
2022-10-17T00:10:25.719Z,13.20
2022-10-17T00:12:52.296Z,13.30
2022-10-17T00:15:19.579Z,13.30
2022-10-17T00:17:46.124Z,13.30
2022-10-17T00:20:12.716Z,13.30
2022-10-17T00:22:39.262Z,13.30
2022-10-17T00:25:06.011Z,13.30
2022-10-17T00:27:36.379Z,13.30
2022-10-17T00:30:02.964Z,13.20
2022-10-17T00:32:29.823Z,13.00
2022-10-17T00:34:57.416Z,12.90
2022-10-17T00:37:23.980Z,12.80
2022-10-17T00:39:50.524Z,12.70
2022-10-17T00:42:17.073Z,12.60
2022-10-17T00:44:46.977Z,12.60
2022-10-17T00:47:17.469Z,12.60
2022-10-17T00:49:44.005Z,12.60
2022-10-17T00:52:14.930Z,12.70
2022-10-17T00:54:43.663Z,12.70
2022-10-17T00:57:10.959Z,12.90
2022-10-17T00:59:37.848Z,12.90
2022-10-17T01:02:05.543Z,13.00
2022-10-17T01:04:32.083Z,13.00
2022-10-17T01:06:58.687Z,13.00
2022-10-17T01:09:25.373Z,12.90
2022-10-17T01:12:12.191Z,12.80
2022-10-17T01:14:41.702Z,12.70
2022-10-17T01:17:08.297Z,12.70
2022-10-17T01:19:49.985Z,12.60
2022-10-17T01:22:37.476Z,12.60
2022-10-17T01:25:24.287Z,12.60
2022-10-17T01:27:50.804Z,12.50
2022-10-17T01:30:23.953Z,12.50
2022-10-17T01:33:09.305Z,12.50
2022-10-17T01:35:44.976Z,12.50
2022-10-17T01:38:17.419Z,12.50
2022-10-17T01:40:45.285Z,12.50
2022-10-17T01:43:14.909Z,12.60
2022-10-17T01:45:57.141Z,12.70
2022-10-17T01:48:24.238Z,12.70
2022-10-17T01:50:51.873Z,12.90
2022-10-17T01:53:19.740Z,12.90
2022-10-17T01:55:46.398Z,13.00
2022-10-17T01:58:14.101Z,13.00
2022-10-17T02:00:42.552Z,13.00
2022-10-17T02:03:09.489Z,13.00
2022-10-17T02:05:37.344Z,12.90
2022-10-17T02:08:04.134Z,12.80
2022-10-17T02:10:33.222Z,12.70
2022-10-17T02:13:02.262Z,12.60
2022-10-17T02:15:34.893Z,12.60
2022-10-17T02:18:16.040Z,12.60
2022-10-17T02:21:00.931Z,12.60
2022-10-17T02:23:46.786Z,12.50
2022-10-17T02:26:21.337Z,12.50
2022-10-17T02:28:51.862Z,12.40
2022-10-17T02:31:26.071Z,12.30
2022-10-17T02:33:56.772Z,12.30
2022-10-17T02:36:24.325Z,12.30
2022-10-17T02:38:50.902Z,12.50
2022-10-17T02:41:18.094Z,12.60
2022-10-17T02:43:45.759Z,12.80
2022-10-17T02:46:12.946Z,12.90
2022-10-17T02:48:43.165Z,13.00
2022-10-17T02:51:15.413Z,13.00
2022-10-17T02:53:44.325Z,13.20
2022-10-17T02:56:15.558Z,13.30
2022-10-17T02:58:42.090Z,13.30
2022-10-17T03:01:08.700Z,13.30
2022-10-17T03:03:35.307Z,13.30
2022-10-17T03:06:01.856Z,13.30
2022-10-17T03:08:28.507Z,13.30
2022-10-17T03:10:55.072Z,13.30
2022-10-17T03:13:21.612Z,13.20
2022-10-17T03:15:48.214Z,13.20
2022-10-17T03:18:14.758Z,13.20
2022-10-17T03:20:41.293Z,13.10
2022-10-17T03:23:07.842Z,13.10
2022-10-17T03:25:34.380Z,13.10
2022-10-17T03:28:01.604Z,13.10
2022-10-17T03:30:28.577Z,13.10
2022-10-17T03:32:55.147Z,13.10
2022-10-17T03:35:21.784Z,13.10
2022-10-17T03:37:48.423Z,13.10
2022-10-17T03:40:15.036Z,13.00
2022-10-17T03:42:41.587Z,13.00
2022-10-17T03:45:08.287Z,12.90
2022-10-17T03:47:34.842Z,13.00
2022-10-17T03:50:01.381Z,13.00
2022-10-17T03:52:27.948Z,13.00
2022-10-17T03:54:54.474Z,13.00
2022-10-17T03:57:21.065Z,13.00
2022-10-17T03:59:47.586Z,13.00
2022-10-17T04:02:14.132Z,13.00
2022-10-17T04:04:40.666Z,13.00
2022-10-17T04:07:07.247Z,13.00
2022-10-17T04:09:33.778Z,13.00
2022-10-17T04:12:00.327Z,13.10
2022-10-17T04:14:26.869Z,13.00
2022-10-17T04:16:54.447Z,13.10
2022-10-17T04:19:20.988Z,13.10
2022-10-17T04:21:47.590Z,13.00
2022-10-17T04:24:14.133Z,13.00
2022-10-17T04:26:40.675Z,13.00
2022-10-17T04:29:07.230Z,13.00
2022-10-17T04:31:33.872Z,13.00
2022-10-17T04:34:00.497Z,13.00
2022-10-17T04:36:27.084Z,13.00
2022-10-17T04:38:53.670Z,13.00
2022-10-17T04:41:20.220Z,13.00
2022-10-17T04:43:50.201Z,12.90
2022-10-17T04:46:17.900Z,13.00
2022-10-17T04:48:44.777Z,12.90
2022-10-17T04:51:12.167Z,12.90
2022-10-17T04:53:38.818Z,13.00
2022-10-17T04:56:08.887Z,13.00
2022-10-17T04:58:35.676Z,12.90
2022-10-17T05:01:06.340Z,12.90
2022-10-17T05:03:33.390Z,13.00
2022-10-17T05:06:03.127Z,13.00
2022-10-17T05:08:29.689Z,12.90
2022-10-17T05:10:56.234Z,12.90
2022-10-17T05:13:22.786Z,12.90
2022-10-17T05:15:50.650Z,12.80
2022-10-17T05:18:17.233Z,12.90
2022-10-17T05:20:43.894Z,12.90
2022-10-17T05:23:10.444Z,12.90
2022-10-17T05:25:36.971Z,12.90
2022-10-17T05:28:03.570Z,12.90
2022-10-17T05:30:33.786Z,12.80
2022-10-17T05:33:04.067Z,12.90
2022-10-17T05:35:30.625Z,12.90
2022-10-17T05:37:57.885Z,12.90
2022-10-17T05:40:24.445Z,13.00
2022-10-17T05:42:50.988Z,13.00
2022-10-17T05:45:17.545Z,13.00
2022-10-17T05:47:44.126Z,13.00
2022-10-17T05:50:10.675Z,13.10
2022-10-17T05:52:37.229Z,13.10
2022-10-17T05:55:04.259Z,13.10
2022-10-17T05:57:30.840Z,13.20
2022-10-17T05:59:57.403Z,13.20
2022-10-17T06:02:24.044Z,13.30
2022-10-17T06:04:50.704Z,13.40
2022-10-17T06:07:17.267Z,13.40
2022-10-17T06:09:43.845Z,13.40
2022-10-17T06:12:10.440Z,13.50
2022-10-17T06:14:36.973Z,13.50
2022-10-17T06:17:03.569Z,13.60
2022-10-17T06:19:30.191Z,13.60
2022-10-17T06:21:56.717Z,13.70
2022-10-17T06:24:23.292Z,13.80
2022-10-17T06:26:51.037Z,13.80
2022-10-17T06:29:17.581Z,13.80
2022-10-17T06:31:44.110Z,13.90
2022-10-17T06:34:10.683Z,14.00
2022-10-17T06:36:37.221Z,14.10
2022-10-17T06:39:03.856Z,14.30
2022-10-17T06:41:30.428Z,14.50
2022-10-17T06:43:56.987Z,14.60
2022-10-17T06:46:26.640Z,14.60
2022-10-17T06:48:53.364Z,14.70
2022-10-17T06:51:19.899Z,14.90
2022-10-17T06:53:47.076Z,15.00
2022-10-17T06:56:13.623Z,15.20
2022-10-17T06:58:40.200Z,15.50
2022-10-17T07:03:39.033Z,15.90
2022-10-17T07:06:05.846Z,16.20
2022-10-17T07:08:32.443Z,16.50
2022-10-17T07:10:59.037Z,16.80
2022-10-17T07:13:25.632Z,17.60
2022-10-17T07:15:52.463Z,18.10
2022-10-17T07:18:19.093Z,18.60
2022-10-17T07:20:52.402Z,18.60
2022-10-17T07:23:18.939Z,19.10
2022-10-17T07:25:45.464Z,19.70
2022-10-17T07:28:11.999Z,20.10
2022-10-17T07:30:38.533Z,20.90
2022-10-17T07:33:05.071Z,21.80
2022-10-17T07:35:31.609Z,22.30
2022-10-17T07:37:58.160Z,22.70
2022-10-17T07:40:24.694Z,22.80
2022-10-17T07:42:51.270Z,22.70
2022-10-17T07:45:17.803Z,22.50
2022-10-17T07:47:44.339Z,22.10
2022-10-17T07:50:10.866Z,21.60
2022-10-17T07:52:37.584Z,21.00
2022-10-17T07:55:04.410Z,20.70
2022-10-17T07:57:30.954Z,20.40
2022-10-17T07:59:57.506Z,20.20
2022-10-17T08:02:24.789Z,20.00
2022-10-17T08:04:51.703Z,19.80
2022-10-17T08:07:23.041Z,19.60
2022-10-17T08:09:52.014Z,19.50
2022-10-17T08:12:18.697Z,19.20
2022-10-17T08:14:45.294Z,19.10
2022-10-17T08:17:11.857Z,19.10
2022-10-17T08:19:39.212Z,19.00
2022-10-17T08:22:05.788Z,19.00
2022-10-17T08:24:32.376Z,19.00
2022-10-17T08:27:00.529Z,19.00
2022-10-17T08:29:27.070Z,19.00
2022-10-17T08:31:58.578Z,19.10
2022-10-17T08:34:28.128Z,19.20
2022-10-17T08:36:54.725Z,19.20
2022-10-17T08:39:21.267Z,19.30
2022-10-17T08:42:00.122Z,19.30
2022-10-17T08:44:33.425Z,19.50
2022-10-17T08:47:01.243Z,19.60
2022-10-17T08:49:27.754Z,19.70
2022-10-17T08:51:55.754Z,19.70
2022-10-17T08:54:24.397Z,19.70
2022-10-17T08:56:51.261Z,19.80
2022-10-17T08:59:18.823Z,19.80
2022-10-17T09:01:48.583Z,19.90
2022-10-17T09:04:33.912Z,19.80
2022-10-17T09:07:05.883Z,19.80
2022-10-17T09:09:35.543Z,20.00
2022-10-17T09:12:12.543Z,19.90
2022-10-17T09:14:51.045Z,19.80
2022-10-17T09:17:27.664Z,19.80
2022-10-17T09:20:00.700Z,20.00
2022-10-17T09:22:28.451Z,20.00
2022-10-17T09:24:59.292Z,20.00
2022-10-17T09:27:41.968Z,20.00
2022-10-17T09:30:43.671Z,20.10
2022-10-17T09:33:23.177Z,20.40
2022-10-17T09:35:59.696Z,20.60
2022-10-17T09:38:27.593Z,20.90
2022-10-17T09:40:58.348Z,21.00
2022-10-17T09:43:25.149Z,21.20
2022-10-17T09:46:11.946Z,21.40
2022-10-17T09:48:39.565Z,21.50
2022-10-17T09:51:21.928Z,21.70
2022-10-17T09:53:54.244Z,21.90
2022-10-17T09:56:21.116Z,22.10
2022-10-17T09:58:55.936Z,22.00
2022-10-17T10:01:24.160Z,22.00
2022-10-17T10:04:10.053Z,21.90
2022-10-17T10:06:36.647Z,21.90
2022-10-17T10:09:06.974Z,21.70
2022-10-17T10:11:52.529Z,21.80
2022-10-17T10:14:23.066Z,21.80
2022-10-17T10:16:49.946Z,21.90
2022-10-17T10:19:25.387Z,22.00
2022-10-17T10:21:56.022Z,21.90
2022-10-17T10:24:25.887Z,22.00
2022-10-17T10:26:58.100Z,22.10
2022-10-17T10:29:30.642Z,22.10
2022-10-17T10:31:58.625Z,22.10
2022-10-17T10:34:26.217Z,22.10
2022-10-17T10:37:02.902Z,22.20
2022-10-17T10:39:35.623Z,22.40
2022-10-17T10:42:02.589Z,22.60
2022-10-17T10:44:29.398Z,22.60
2022-10-17T10:47:09.118Z,22.60
2022-10-17T10:49:41.398Z,22.60
2022-10-17T10:52:07.987Z,22.60
2022-10-17T10:54:36.758Z,22.70
2022-10-17T10:57:04.237Z,22.80
2022-10-17T10:59:42.672Z,23.00
2022-10-17T11:02:16.834Z,23.20
2022-10-17T11:04:45.217Z,23.30
2022-10-17T11:07:11.716Z,23.30
2022-10-17T11:09:56.666Z,23.40
2022-10-17T11:12:23.204Z,23.50
2022-10-17T11:14:52.417Z,23.50
2022-10-17T11:17:18.987Z,23.50
2022-10-17T11:19:51.778Z,23.70
2022-10-17T11:22:24.023Z,23.70
2022-10-17T11:25:06.419Z,23.80
2022-10-17T11:27:32.943Z,23.90
2022-10-17T11:29:59.570Z,23.90
2022-10-17T11:32:31.347Z,23.70
2022-10-17T11:35:00.325Z,23.40
2022-10-17T11:37:28.370Z,23.10
2022-10-17T11:39:56.354Z,22.90
2022-10-17T11:42:27.840Z,23.00
2022-10-17T11:44:56.793Z,23.10
2022-10-17T11:47:23.284Z,23.00
2022-10-17T11:49:54.495Z,22.80
2022-10-17T11:52:43.877Z,22.80
2022-10-17T11:55:30.891Z,22.80
2022-10-17T11:58:03.317Z,23.10
2022-10-17T12:00:48.811Z,23.50
2022-10-17T12:03:25.382Z,23.70
2022-10-17T12:06:08.356Z,23.90
2022-10-17T12:08:55.268Z,24.00
2022-10-17T12:11:39.991Z,24.00
2022-10-17T12:14:39.157Z,24.10
2022-10-17T12:17:06.472Z,24.20
2022-10-17T12:19:34.091Z,24.10
2022-10-17T12:22:17.776Z,24.00
2022-10-17T12:24:45.019Z,23.90
2022-10-17T12:27:28.407Z,23.90
2022-10-17T12:29:59.201Z,23.90
2022-10-17T12:32:30.190Z,24.00
2022-10-17T12:34:59.928Z,24.10
2022-10-17T12:37:41.709Z,24.20
2022-10-17T12:40:28.684Z,24.10
2022-10-17T12:42:55.248Z,24.10
2022-10-17T12:45:40.712Z,24.10
2022-10-17T12:48:09.358Z,24.10
2022-10-17T12:50:54.699Z,24.10
2022-10-17T12:53:21.258Z,24.20
2022-10-17T12:55:47.844Z,24.10
2022-10-17T12:58:14.726Z,24.10
2022-10-17T13:00:43.818Z,24.20
2022-10-17T13:03:18.344Z,24.20
2022-10-17T13:05:49.280Z,24.30
2022-10-17T13:08:18.037Z,24.10
2022-10-17T13:10:47.043Z,24.10
2022-10-17T13:13:14.470Z,24.00
2022-10-17T13:15:41.005Z,24.00
2022-10-17T13:18:13.903Z,24.00
2022-10-17T13:20:40.436Z,23.80
2022-10-17T13:23:20.993Z,23.80
2022-10-17T13:25:47.531Z,23.80
2022-10-17T13:28:14.162Z,23.80
2022-10-17T13:30:45.317Z,24.00
2022-10-17T13:33:19.102Z,24.00
2022-10-17T13:35:59.862Z,24.10
2022-10-17T13:38:28.186Z,24.10
2022-10-17T13:41:01.700Z,24.00
2022-10-17T13:43:32.883Z,24.00
2022-10-17T13:46:19.318Z,24.10
2022-10-17T13:48:50.405Z,24.10
2022-10-17T13:51:16.948Z,24.30
2022-10-17T13:53:44.493Z,24.30
2022-10-17T13:56:29.869Z,24.20
2022-10-17T13:58:57.582Z,24.10
2022-10-17T14:01:24.647Z,24.00
2022-10-17T14:04:02.185Z,24.10
2022-10-17T14:06:34.715Z,24.00
2022-10-17T14:09:01.230Z,24.00
2022-10-17T14:11:35.661Z,23.90
2022-10-17T14:14:03.047Z,23.80
2022-10-17T14:16:42.129Z,23.80
2022-10-17T14:19:27.826Z,23.60
2022-10-17T14:21:54.931Z,23.60
2022-10-17T14:24:21.462Z,23.60
2022-10-17T14:26:48.805Z,23.60
2022-10-17T14:29:21.581Z,23.60
2022-10-17T14:31:50.556Z,23.50
2022-10-17T14:34:20.688Z,23.50
2022-10-17T14:36:47.230Z,23.50
2022-10-17T14:39:20.777Z,23.60
2022-10-17T14:41:47.319Z,23.60
2022-10-17T14:44:28.022Z,23.70
2022-10-17T14:46:56.080Z,23.70
2022-10-17T14:49:27.731Z,23.70
2022-10-17T14:52:30.046Z,23.70
2022-10-17T14:54:57.059Z,23.50
2022-10-17T14:57:27.982Z,23.40
2022-10-17T14:59:55.855Z,23.20
2022-10-17T15:02:23.672Z,23.00
2022-10-17T15:04:50.337Z,22.80
2022-10-17T15:07:17.742Z,22.70
2022-10-17T15:09:44.591Z,22.60
2022-10-17T15:12:12.953Z,22.50
2022-10-17T15:14:39.615Z,22.40
2022-10-17T15:17:13.373Z,22.20
2022-10-17T15:19:40.071Z,22.20
2022-10-17T15:22:06.681Z,22.10
2022-10-17T15:24:33.299Z,21.90
2022-10-17T15:26:59.882Z,21.90
2022-10-17T15:29:26.910Z,21.80
2022-10-17T15:31:53.539Z,21.70
2022-10-17T15:34:20.140Z,21.70
2022-10-17T15:36:50.840Z,21.60
2022-10-17T15:39:17.394Z,21.50
2022-10-17T15:41:44.085Z,21.50
2022-10-17T15:44:10.640Z,21.50
2022-10-17T15:46:37.204Z,21.40
2022-10-17T15:49:11.113Z,21.40
2022-10-17T15:51:37.761Z,21.40
2022-10-17T15:54:05.603Z,21.30
2022-10-17T15:56:36.108Z,21.30
2022-10-17T15:59:22.916Z,21.20
2022-10-17T16:01:49.461Z,21.20
2022-10-17T16:04:16.074Z,21.20
2022-10-17T16:06:42.763Z,21.20
2022-10-17T16:09:09.407Z,21.10
2022-10-17T16:11:36.961Z,21.10
2022-10-17T16:14:04.687Z,21.00
2022-10-17T16:16:31.361Z,21.00
2022-10-17T16:18:57.914Z,21.00
2022-10-17T16:21:25.902Z,20.90
2022-10-17T16:23:52.738Z,20.90
2022-10-17T16:26:19.394Z,20.80
2022-10-17T16:28:46.523Z,20.80
2022-10-17T16:31:19.448Z,20.80
2022-10-17T16:33:46.454Z,20.70
2022-10-17T16:36:13.000Z,20.60
2022-10-17T16:38:39.993Z,20.60
2022-10-17T16:41:12.382Z,20.50
2022-10-17T16:43:39.449Z,20.50
2022-10-17T16:46:05.997Z,20.40
2022-10-17T16:48:32.570Z,20.40
2022-10-17T16:50:59.155Z,20.30
2022-10-17T16:53:25.698Z,20.30
2022-10-17T16:55:59.270Z,20.20
2022-10-17T16:58:27.405Z,20.10
2022-10-17T17:00:54.072Z,20.10
2022-10-17T17:03:20.784Z,20.10
2022-10-17T17:05:52.827Z,20.10
2022-10-17T17:08:19.366Z,20.10
2022-10-17T17:10:46.499Z,20.00
2022-10-17T17:13:13.032Z,19.90
2022-10-17T17:15:39.681Z,19.80
2022-10-17T17:18:06.685Z,19.80
2022-10-17T17:20:33.685Z,19.80
2022-10-17T17:23:00.446Z,19.70
2022-10-17T17:25:27.044Z,19.70
2022-10-17T17:27:53.575Z,19.60
2022-10-17T17:30:20.138Z,19.60
2022-10-17T17:32:46.852Z,19.60
2022-10-17T17:35:13.631Z,19.60
2022-10-17T17:37:40.183Z,19.60
2022-10-17T17:40:07.083Z,19.60
2022-10-17T17:42:33.616Z,19.50
2022-10-17T17:45:00.278Z,19.40
2022-10-17T17:47:28.553Z,19.40
2022-10-17T17:49:55.321Z,19.30
2022-10-17T17:52:21.853Z,19.20
2022-10-17T17:54:48.402Z,19.20
2022-10-17T17:57:14.932Z,19.10
2022-10-17T17:59:41.531Z,19.00
2022-10-17T18:02:09.070Z,19.00
2022-10-17T18:04:35.648Z,18.80
2022-10-17T18:07:02.181Z,18.80
2022-10-17T18:09:28.733Z,18.70
2022-10-17T18:11:55.486Z,18.70
2022-10-17T18:14:23.906Z,18.70
2022-10-17T18:16:50.482Z,18.70
2022-10-17T18:19:17.115Z,18.70
2022-10-17T18:21:44.318Z,18.70
2022-10-17T18:24:10.875Z,18.60
2022-10-17T18:26:37.440Z,18.60
2022-10-17T18:29:04.038Z,18.50
2022-10-17T18:31:35.597Z,18.50
2022-10-17T18:34:02.747Z,18.60
2022-10-17T18:36:29.663Z,18.60
2022-10-17T18:38:56.357Z,18.50
2022-10-17T18:41:24.170Z,18.60
2022-10-17T18:43:50.853Z,18.60
2022-10-17T18:46:18.708Z,18.60
2022-10-17T18:48:45.515Z,18.50
2022-10-17T18:51:12.468Z,18.50
2022-10-17T18:53:39.855Z,18.50
2022-10-17T18:56:06.548Z,18.50
2022-10-17T18:58:33.097Z,18.50
2022-10-17T19:01:03.536Z,18.40
2022-10-17T19:03:30.453Z,18.40
2022-10-17T19:06:01.088Z,18.40
2022-10-17T19:08:27.796Z,18.40
2022-10-17T19:10:54.341Z,18.30
2022-10-17T19:13:21.732Z,18.40
2022-10-17T19:15:48.392Z,18.30
2022-10-17T19:18:14.931Z,18.30
2022-10-17T19:20:41.556Z,18.30
2022-10-17T19:23:08.092Z,18.30
2022-10-17T19:25:34.643Z,18.30
2022-10-17T19:28:01.183Z,18.30
2022-10-17T19:30:27.813Z,18.30
2022-10-17T19:32:54.350Z,18.30
2022-10-17T19:35:20.895Z,18.30
2022-10-17T19:37:47.423Z,18.30
2022-10-17T19:40:14.158Z,18.30
2022-10-17T19:42:40.693Z,18.30
2022-10-17T19:45:07.727Z,18.20
2022-10-17T19:47:34.830Z,18.20
2022-10-17T19:50:01.377Z,18.20
2022-10-17T19:52:28.100Z,18.10
2022-10-17T19:54:54.962Z,18.10
2022-10-17T19:57:21.528Z,18.10
2022-10-17T19:59:49.386Z,18.10
2022-10-17T20:02:17.837Z,18.00
2022-10-17T20:04:54.472Z,18.00
2022-10-17T20:07:30.901Z,18.00
2022-10-17T20:09:57.510Z,18.00
2022-10-17T20:12:24.056Z,17.90
2022-10-17T20:14:50.676Z,17.90
2022-10-17T20:17:17.208Z,17.90
2022-10-17T20:19:43.777Z,17.80
2022-10-17T20:22:10.308Z,17.80
2022-10-17T20:24:36.856Z,17.70
2022-10-17T20:27:03.416Z,17.70
2022-10-17T20:29:29.969Z,17.70
2022-10-17T20:31:57.601Z,17.60
2022-10-17T20:34:24.226Z,17.60
2022-10-17T20:36:50.767Z,17.60
2022-10-17T20:39:19.193Z,17.50
2022-10-17T20:41:45.832Z,17.60
2022-10-17T20:44:12.571Z,17.50
2022-10-17T20:46:44.837Z,17.50
2022-10-17T20:49:19.609Z,17.50
2022-10-17T20:51:46.191Z,17.50
2022-10-17T20:54:12.825Z,17.50
2022-10-17T20:56:39.673Z,17.40
2022-10-17T20:59:07.430Z,17.50
2022-10-17T21:01:34.589Z,17.40
2022-10-17T21:04:21.271Z,17.30
2022-10-17T21:06:48.224Z,17.30
2022-10-17T21:09:14.861Z,17.20
2022-10-17T21:11:43.007Z,17.10
2022-10-17T21:14:09.757Z,17.10
2022-10-17T21:16:36.408Z,17.10
2022-10-17T21:19:03.111Z,17.00
2022-10-17T21:21:33.749Z,17.00
2022-10-17T21:24:01.780Z,17.00
2022-10-17T21:26:28.373Z,16.90
2022-10-17T21:28:54.987Z,17.00
2022-10-17T21:31:23.009Z,17.00
2022-10-17T21:33:50.312Z,17.10
2022-10-17T21:36:17.019Z,17.10
2022-10-17T21:38:43.949Z,17.10
2022-10-17T21:41:10.817Z,17.10
2022-10-17T21:43:37.444Z,17.10
2022-10-17T21:46:04.533Z,17.10
2022-10-17T21:48:31.176Z,17.10
2022-10-17T21:50:59.231Z,17.00
2022-10-17T21:53:25.760Z,16.90
2022-10-17T21:55:52.312Z,16.90
2022-10-17T21:58:19.369Z,16.90
2022-10-17T22:00:45.935Z,16.90
2022-10-17T22:03:15.028Z,16.90
2022-10-17T22:05:41.597Z,16.90
2022-10-17T22:08:08.173Z,17.00
2022-10-17T22:10:38.003Z,17.10
2022-10-17T22:13:04.669Z,17.10
2022-10-17T22:15:31.343Z,17.20
2022-10-17T22:17:57.869Z,17.20
2022-10-17T22:20:24.485Z,17.20
2022-10-17T22:22:51.066Z,17.20
2022-10-17T22:25:17.611Z,17.20
2022-10-17T22:27:44.151Z,17.20
2022-10-17T22:30:10.856Z,17.20
2022-10-17T22:32:37.400Z,17.20
2022-10-17T22:35:04.130Z,17.10
2022-10-17T22:37:30.908Z,17.10
2022-10-17T22:39:57.725Z,17.00
2022-10-17T22:42:24.256Z,17.00
2022-10-17T22:44:50.821Z,17.00
2022-10-17T22:47:17.361Z,17.00
2022-10-17T22:49:43.909Z,17.00
2022-10-17T22:52:10.459Z,16.90
2022-10-17T22:54:37.013Z,16.90
2022-10-17T22:57:03.556Z,16.90
2022-10-17T22:59:30.106Z,16.90
2022-10-17T23:01:56.698Z,16.80
2022-10-17T23:04:23.267Z,16.80
2022-10-17T23:06:49.801Z,16.80
2022-10-17T23:09:16.385Z,16.80
2022-10-17T23:11:42.938Z,16.80
2022-10-17T23:14:09.479Z,16.90
2022-10-17T23:16:36.018Z,16.90
2022-10-17T23:19:02.597Z,16.90
2022-10-17T23:21:29.132Z,16.90
2022-10-17T23:23:55.669Z,17.00
2022-10-17T23:26:22.264Z,17.00
2022-10-17T23:28:52.905Z,17.00
2022-10-17T23:31:19.815Z,17.00
2022-10-17T23:33:46.741Z,17.00
2022-10-17T23:36:13.929Z,16.90
2022-10-17T23:38:40.784Z,16.90
2022-10-17T23:41:07.407Z,16.90
2022-10-17T23:43:34.269Z,16.90
2022-10-17T23:46:01.288Z,16.80
2022-10-17T23:48:28.022Z,16.80
2022-10-17T23:50:55.840Z,16.80
2022-10-17T23:53:22.820Z,16.80
2022-10-17T23:55:49.431Z,16.80
2022-10-17T23:58:15.996Z,16.80
